sensor_id;sensor_type;location;lat;lon;timestamp;pressure;altitude;pressure_sealevel;temperature;humidity
6094;BME280;19964;42.060;24.700;2023-03-20T00:00:20;97925.00;;;4.60;78.47
6094;BME280;19964;42.060;24.700;2023-03-20T00:02:48;97922.25;;;4.76;78.77
6094;BME280;19964;42.060;24.700;2023-03-20T00:05:18;97917.66;;;4.72;78.18
6094;BME280;19964;42.060;24.700;2023-03-20T00:07:46;97911.38;;;4.74;78.35
6094;BME280;19964;42.060;24.700;2023-03-20T00:10:14;97908.03;;;4.74;78.71
6094;BME280;19964;42.060;24.700;2023-03-20T00:12:43;97909.25;;;4.78;78.67
6094;BME280;19964;42.060;24.700;2023-03-20T00:15:23;97905.19;;;4.83;78.10
6094;BME280;19964;42.060;24.700;2023-03-20T00:17:50;97907.56;;;4.70;78.97
6094;BME280;19964;42.060;24.700;2023-03-20T00:20:18;97908.28;;;4.79;78.43
6094;BME280;19964;42.060;24.700;2023-03-20T00:22:45;97889.44;;;4.72;78.48
6094;BME280;19964;42.060;24.700;2023-03-20T00:25:13;97899.16;;;4.76;78.63
6094;BME280;19964;42.060;24.700;2023-03-20T00:27:42;97902.78;;;4.67;78.76
6094;BME280;19964;42.060;24.700;2023-03-20T00:30:19;97880.94;;;4.57;79.31
6094;BME280;19964;42.060;24.700;2023-03-20T00:32:47;97896.00;;;4.60;79.56
6094;BME280;19964;42.060;24.700;2023-03-20T00:35:18;97882.09;;;4.39;80.25
6094;BME280;19964;42.060;24.700;2023-03-20T00:37:45;97870.41;;;4.37;80.12
6094;BME280;19964;42.060;24.700;2023-03-20T00:40:13;97888.91;;;4.47;80.00
6094;BME280;19964;42.060;24.700;2023-03-20T00:42:40;97869.19;;;4.33;80.12
6094;BME280;19964;42.060;24.700;2023-03-20T00:45:12;97887.22;;;4.25;80.68
6094;BME280;19964;42.060;24.700;2023-03-20T00:47:40;97891.34;;;4.26;81.05
6094;BME280;19964;42.060;24.700;2023-03-20T00:50:19;97880.22;;;4.33;81.55
6094;BME280;19964;42.060;24.700;2023-03-20T00:52:46;97880.66;;;4.22;82.01
6094;BME280;19964;42.060;24.700;2023-03-20T00:55:14;97885.91;;;4.29;81.85
6094;BME280;19964;42.060;24.700;2023-03-20T00:57:52;97883.78;;;4.32;82.15
6094;BME280;19964;42.060;24.700;2023-03-20T01:00:33;97885.09;;;4.28;82.15
6094;BME280;19964;42.060;24.700;2023-03-20T01:03:09;97872.16;;;4.22;82.82
6094;BME280;19964;42.060;24.700;2023-03-20T01:05:36;97853.22;;;3.94;83.68
6094;BME280;19964;42.060;24.700;2023-03-20T01:08:07;97868.44;;;4.10;83.55
6094;BME280;19964;42.060;24.700;2023-03-20T01:10:35;97884.63;;;4.10;83.84
6094;BME280;19964;42.060;24.700;2023-03-20T01:13:02;97881.88;;;4.12;84.56
6094;BME280;19964;42.060;24.700;2023-03-20T01:15:32;97872.41;;;3.98;84.63
6094;BME280;19964;42.060;24.700;2023-03-20T01:17:59;97875.38;;;3.87;85.72
6094;BME280;19964;42.060;24.700;2023-03-20T01:20:27;97868.56;;;3.79;86.16
6094;BME280;19964;42.060;24.700;2023-03-20T01:22:54;97866.34;;;3.76;86.58
6094;BME280;19964;42.060;24.700;2023-03-20T01:25:22;97867.31;;;3.75;87.76
6094;BME280;19964;42.060;24.700;2023-03-20T01:27:50;97857.00;;;3.83;88.16
6094;BME280;19964;42.060;24.700;2023-03-20T01:30:20;97854.78;;;3.80;88.51
6094;BME280;19964;42.060;24.700;2023-03-20T01:32:49;97861.25;;;3.91;89.34
6094;BME280;19964;42.060;24.700;2023-03-20T01:35:18;97857.88;;;3.90;89.01
6094;BME280;19964;42.060;24.700;2023-03-20T01:37:49;97859.94;;;3.95;89.00
6094;BME280;19964;42.060;24.700;2023-03-20T01:40:32;97864.09;;;3.96;88.67
6094;BME280;19964;42.060;24.700;2023-03-20T01:43:10;97848.34;;;3.84;89.11
6094;BME280;19964;42.060;24.700;2023-03-20T01:45:46;97778.91;;;3.42;89.92
6094;BME280;19964;42.060;24.700;2023-03-20T01:48:18;97850.09;;;3.84;88.72
6094;BME280;19964;42.060;24.700;2023-03-20T01:50:45;97848.25;;;3.92;88.67
6094;BME280;19964;42.060;24.700;2023-03-20T01:53:14;97846.50;;;3.93;89.05
6094;BME280;19964;42.060;24.700;2023-03-20T01:55:42;97843.22;;;3.99;88.28
6094;BME280;19964;42.060;24.700;2023-03-20T01:58:16;97842.78;;;4.10;87.60
6094;BME280;19964;42.060;24.700;2023-03-20T02:00:47;97840.66;;;3.84;87.04
6094;BME280;19964;42.060;24.700;2023-03-20T02:03:15;97846.75;;;3.83;87.23
6094;BME280;19964;42.060;24.700;2023-03-20T02:05:44;97843.16;;;3.70;87.20
6094;BME280;19964;42.060;24.700;2023-03-20T02:08:18;97854.19;;;3.93;87.44
6094;BME280;19964;42.060;24.700;2023-03-20T02:10:48;97846.66;;;3.91;86.64
6094;BME280;19964;42.060;24.700;2023-03-20T02:13:15;97855.78;;;3.94;86.46
6094;BME280;19964;42.060;24.700;2023-03-20T02:16:01;97850.03;;;3.92;86.00
6094;BME280;19964;42.060;24.700;2023-03-20T02:18:29;97777.13;;;3.42;86.13
6094;BME280;19964;42.060;24.700;2023-03-20T02:24:12;97847.47;;;3.92;86.08
6094;BME280;19964;42.060;24.700;2023-03-20T02:26:59;97844.44;;;3.88;86.26
6094;BME280;19964;42.060;24.700;2023-03-20T02:39:17;97832.69;;;3.79;86.57
6094;BME280;19964;42.060;24.700;2023-03-20T02:41:51;97814.47;;;3.74;86.61
6094;BME280;19964;42.060;24.700;2023-03-20T02:44:27;97827.56;;;3.79;86.95
6094;BME280;19964;42.060;24.700;2023-03-20T02:47:02;97831.19;;;3.85;86.51
6094;BME280;19964;42.060;24.700;2023-03-20T02:49:44;97813.88;;;3.72;86.43
6094;BME280;19964;42.060;24.700;2023-03-20T02:52:19;97826.25;;;3.83;86.33
6094;BME280;19964;42.060;24.700;2023-03-20T02:54:58;97825.09;;;3.86;86.34
6094;BME280;19964;42.060;24.700;2023-03-20T02:57:34;97831.63;;;3.88;85.89
6094;BME280;19964;42.060;24.700;2023-03-20T03:00:09;97831.72;;;3.80;86.57
6094;BME280;19964;42.060;24.700;2023-03-20T03:02:42;97826.94;;;3.77;86.86
6094;BME280;19964;42.060;24.700;2023-03-20T03:05:15;97823.41;;;3.78;86.80
6094;BME280;19964;42.060;24.700;2023-03-20T03:07:44;97815.63;;;3.72;86.92
6094;BME280;19964;42.060;24.700;2023-03-20T03:10:16;97823.75;;;3.75;86.59
6094;BME280;19964;42.060;24.700;2023-03-20T03:12:50;97820.22;;;3.76;86.65
6094;BME280;19964;42.060;24.700;2023-03-20T03:15:21;97817.06;;;3.74;86.90
6094;BME280;19964;42.060;24.700;2023-03-20T03:17:51;97820.47;;;3.67;86.88
6094;BME280;19964;42.060;24.700;2023-03-20T03:20:21;97712.47;;;2.89;87.62
6094;BME280;19964;42.060;24.700;2023-03-20T03:22:50;97811.78;;;3.53;87.71
6094;BME280;19964;42.060;24.700;2023-03-20T03:25:20;97801.06;;;3.49;87.94
6094;BME280;19964;42.060;24.700;2023-03-20T03:27:53;97797.25;;;3.45;88.26
6094;BME280;19964;42.060;24.700;2023-03-20T03:30:24;97805.31;;;3.42;88.34
6094;BME280;19964;42.060;24.700;2023-03-20T03:33:07;97812.28;;;3.48;88.83
6094;BME280;19964;42.060;24.700;2023-03-20T03:35:35;97817.81;;;3.60;89.15
6094;BME280;19964;42.060;24.700;2023-03-20T03:38:08;97811.19;;;3.66;87.55
6094;BME280;19964;42.060;24.700;2023-03-20T03:40:43;97813.56;;;3.67;88.27
6094;BME280;19964;42.060;24.700;2023-03-20T03:43:15;97813.19;;;3.55;88.68
6094;BME280;19964;42.060;24.700;2023-03-20T03:45:47;97813.56;;;3.67;88.45
6094;BME280;19964;42.060;24.700;2023-03-20T03:48:17;97802.31;;;3.53;88.32
6094;BME280;19964;42.060;24.700;2023-03-20T03:50:48;97820.88;;;3.55;88.55
6094;BME280;19964;42.060;24.700;2023-03-20T03:53:19;97819.16;;;3.48;89.02
6094;BME280;19964;42.060;24.700;2023-03-20T03:55:52;97814.34;;;3.53;89.22
6094;BME280;19964;42.060;24.700;2023-03-20T03:58:23;97823.78;;;3.52;88.94
6094;BME280;19964;42.060;24.700;2023-03-20T04:00:54;97818.72;;;3.44;88.83
6094;BME280;19964;42.060;24.700;2023-03-20T04:03:27;97819.63;;;3.51;88.94
6094;BME280;19964;42.060;24.700;2023-03-20T04:05:56;97812.72;;;3.37;89.59
6094;BME280;19964;42.060;24.700;2023-03-20T04:08:23;97823.22;;;3.42;89.75
6094;BME280;19964;42.060;24.700;2023-03-20T04:10:52;97797.63;;;3.20;89.78
6094;BME280;19964;42.060;24.700;2023-03-20T04:13:18;97789.38;;;3.10;90.28
6094;BME280;19964;42.060;24.700;2023-03-20T04:15:46;97823.69;;;3.23;91.15
6094;BME280;19964;42.060;24.700;2023-03-20T04:18:13;97819.00;;;3.27;93.30
6094;BME280;19964;42.060;24.700;2023-03-20T04:20:42;97819.75;;;3.35;91.79
6094;BME280;19964;42.060;24.700;2023-03-20T04:23:08;97816.41;;;3.35;91.09
6094;BME280;19964;42.060;24.700;2023-03-20T04:25:35;97816.69;;;3.17;91.73
6094;BME280;19964;42.060;24.700;2023-03-20T04:28:04;97806.31;;;3.11;92.59
6094;BME280;19964;42.060;24.700;2023-03-20T04:30:31;97806.63;;;3.16;92.54
6094;BME280;19964;42.060;24.700;2023-03-20T04:32:58;97793.16;;;3.22;92.37
6094;BME280;19964;42.060;24.700;2023-03-20T04:35:25;97802.16;;;3.32;92.35
6094;BME280;19964;42.060;24.700;2023-03-20T04:37:52;97808.53;;;3.36;92.25
6094;BME280;19964;42.060;24.700;2023-03-20T04:40:18;97811.91;;;3.37;92.58
6094;BME280;19964;42.060;24.700;2023-03-20T04:42:45;97809.44;;;3.81;91.06
6094;BME280;19964;42.060;24.700;2023-03-20T04:45:14;97809.13;;;4.27;88.75
6094;BME280;19964;42.060;24.700;2023-03-20T04:47:40;97814.22;;;4.57;86.51
6094;BME280;19964;42.060;24.700;2023-03-20T04:50:08;97810.66;;;4.87;84.87
6094;BME280;19964;42.060;24.700;2023-03-20T04:52:36;97796.63;;;5.04;82.86
6094;BME280;19964;42.060;24.700;2023-03-20T04:55:03;97822.78;;;5.56;81.03
6094;BME280;19964;42.060;24.700;2023-03-20T04:57:30;97827.56;;;6.08;79.16
6094;BME280;19964;42.060;24.700;2023-03-20T04:59:57;97831.28;;;6.33;77.11
6094;BME280;19964;42.060;24.700;2023-03-20T05:02:26;97827.22;;;6.45;76.26
6094;BME280;19964;42.060;24.700;2023-03-20T05:04:52;97825.97;;;6.82;74.78
6094;BME280;19964;42.060;24.700;2023-03-20T05:07:19;97825.09;;;7.15;72.90
6094;BME280;19964;42.060;24.700;2023-03-20T05:09:46;97834.84;;;7.33;72.38
6094;BME280;19964;42.060;24.700;2023-03-20T05:12:13;97834.50;;;7.62;70.69
6094;BME280;19964;42.060;24.700;2023-03-20T05:14:41;97835.69;;;7.66;70.15
6094;BME280;19964;42.060;24.700;2023-03-20T05:17:08;97836.84;;;8.09;69.64
6094;BME280;19964;42.060;24.700;2023-03-20T05:19:36;97798.34;;;8.34;67.37
6094;BME280;19964;42.060;24.700;2023-03-20T05:22:03;97824.94;;;8.35;66.92
6094;BME280;19964;42.060;24.700;2023-03-20T05:24:30;97838.03;;;8.13;68.12
6094;BME280;19964;42.060;24.700;2023-03-20T05:26:57;97824.34;;;8.33;67.88
6094;BME280;19964;42.060;24.700;2023-03-20T05:29:24;97833.63;;;8.97;65.61
6094;BME280;19964;42.060;24.700;2023-03-20T05:31:51;97828.13;;;9.25;65.10
6094;BME280;19964;42.060;24.700;2023-03-20T05:34:18;97824.97;;;9.54;64.85
6094;BME280;19964;42.060;24.700;2023-03-20T05:36:46;97810.22;;;10.29;62.06
6094;BME280;19964;42.060;24.700;2023-03-20T05:39:14;97831.19;;;10.45;61.54
6094;BME280;19964;42.060;24.700;2023-03-20T05:41:40;97830.59;;;10.80;60.29
6094;BME280;19964;42.060;24.700;2023-03-20T05:44:07;97830.22;;;11.24;59.55
6094;BME280;19964;42.060;24.700;2023-03-20T05:46:37;97834.47;;;11.89;59.85
6094;BME280;19964;42.060;24.700;2023-03-20T05:49:04;97835.84;;;12.26;56.91
6094;BME280;19964;42.060;24.700;2023-03-20T05:51:31;97833.53;;;12.53;55.37
6094;BME280;19964;42.060;24.700;2023-03-20T05:53:59;97830.91;;;12.76;54.11
6094;BME280;19964;42.060;24.700;2023-03-20T05:56:26;97841.00;;;13.12;53.58
6094;BME280;19964;42.060;24.700;2023-03-20T05:58:52;97833.53;;;13.61;53.56
6094;BME280;19964;42.060;24.700;2023-03-20T06:01:19;97833.28;;;14.28;53.01
6094;BME280;19964;42.060;24.700;2023-03-20T06:03:46;97833.69;;;14.37;51.26
6094;BME280;19964;42.060;24.700;2023-03-20T06:06:13;97835.34;;;13.93;51.19
6094;BME280;19964;42.060;24.700;2023-03-20T06:08:40;97826.53;;;14.49;50.61
6094;BME280;19964;42.060;24.700;2023-03-20T06:11:08;97826.31;;;14.34;50.31
6094;BME280;19964;42.060;24.700;2023-03-20T06:13:36;97824.44;;;14.68;49.82
6094;BME280;19964;42.060;24.700;2023-03-20T06:16:03;97840.88;;;14.90;48.58
6094;BME280;19964;42.060;24.700;2023-03-20T06:18:30;97846.09;;;15.11;48.98
6094;BME280;19964;42.060;24.700;2023-03-20T06:20:57;97844.00;;;13.21;52.63
6094;BME280;19964;42.060;24.700;2023-03-20T06:23:24;97846.75;;;12.63;54.15
6094;BME280;19964;42.060;24.700;2023-03-20T06:25:50;97826.09;;;13.08;54.19
6094;BME280;19964;42.060;24.700;2023-03-20T06:28:18;97838.72;;;12.65;54.11
6094;BME280;19964;42.060;24.700;2023-03-20T06:30:45;97833.03;;;12.91;54.83
6094;BME280;19964;42.060;24.700;2023-03-20T06:33:12;97841.25;;;12.13;55.80
6094;BME280;19964;42.060;24.700;2023-03-20T06:35:39;97837.13;;;11.71;56.71
6094;BME280;19964;42.060;24.700;2023-03-20T06:38:06;97831.63;;;11.91;57.18
6094;BME280;19964;42.060;24.700;2023-03-20T06:40:33;97832.13;;;12.11;57.71
6094;BME280;19964;42.060;24.700;2023-03-20T06:43:00;97830.84;;;12.02;57.47
6094;BME280;19964;42.060;24.700;2023-03-20T06:45:28;97827.56;;;12.92;56.52
6094;BME280;19964;42.060;24.700;2023-03-20T06:47:55;97827.91;;;13.35;55.03
6094;BME280;19964;42.060;24.700;2023-03-20T06:50:22;97826.53;;;13.94;54.04
6094;BME280;19964;42.060;24.700;2023-03-20T06:52:49;97833.09;;;13.35;53.49
6094;BME280;19964;42.060;24.700;2023-03-20T06:55:16;97832.72;;;12.64;53.56
6094;BME280;19964;42.060;24.700;2023-03-20T06:57:44;97845.19;;;12.39;55.67
6094;BME280;19964;42.060;24.700;2023-03-20T07:00:12;97835.94;;;13.06;53.27
6094;BME280;19964;42.060;24.700;2023-03-20T07:02:40;97837.81;;;13.38;52.55
6094;BME280;19964;42.060;24.700;2023-03-20T07:05:08;97834.00;;;13.91;51.14
6094;BME280;19964;42.060;24.700;2023-03-20T07:07:35;97835.56;;;13.14;52.37
6094;BME280;19964;42.060;24.700;2023-03-20T07:10:03;97841.28;;;13.44;51.98
6094;BME280;19964;42.060;24.700;2023-03-20T07:12:29;97842.97;;;12.82;53.55
6094;BME280;19964;42.060;24.700;2023-03-20T07:14:56;97838.00;;;12.81;53.87
6094;BME280;19964;42.060;24.700;2023-03-20T07:17:23;97834.28;;;13.45;53.75
6094;BME280;19964;42.060;24.700;2023-03-20T07:19:51;97842.53;;;14.19;50.80
6094;BME280;19964;42.060;24.700;2023-03-20T07:22:21;97832.94;;;12.74;53.52
6094;BME280;19964;42.060;24.700;2023-03-20T07:24:48;97838.44;;;13.74;52.44
6094;BME280;19964;42.060;24.700;2023-03-20T07:27:15;97834.94;;;14.18;52.34
6094;BME280;19964;42.060;24.700;2023-03-20T07:29:42;97820.41;;;14.39;48.66
6094;BME280;19964;42.060;24.700;2023-03-20T07:32:09;97827.41;;;14.76;49.37
6094;BME280;19964;42.060;24.700;2023-03-20T07:34:36;97820.19;;;14.83;49.59
6094;BME280;19964;42.060;24.700;2023-03-20T07:37:04;97826.47;;;15.36;48.02
6094;BME280;19964;42.060;24.700;2023-03-20T07:39:31;97823.31;;;14.42;49.84
6094;BME280;19964;42.060;24.700;2023-03-20T07:41:58;97828.66;;;15.17;50.55
6094;BME280;19964;42.060;24.700;2023-03-20T07:44:25;97823.97;;;15.19;48.68
6094;BME280;19964;42.060;24.700;2023-03-20T07:46:52;97834.63;;;15.66;47.65
6094;BME280;19964;42.060;24.700;2023-03-20T07:49:19;97839.16;;;16.07;46.12
6094;BME280;19964;42.060;24.700;2023-03-20T07:51:47;97788.75;;;14.52;47.39
6094;BME280;19964;42.060;24.700;2023-03-20T07:54:16;97834.88;;;14.13;49.59
6094;BME280;19964;42.060;24.700;2023-03-20T07:56:42;97824.00;;;14.76;50.58
6094;BME280;19964;42.060;24.700;2023-03-20T07:59:09;97833.19;;;15.27;48.89
6094;BME280;19964;42.060;24.700;2023-03-20T08:01:37;97826.34;;;15.21;48.79
6094;BME280;19964;42.060;24.700;2023-03-20T08:04:04;97827.75;;;14.63;49.73
6094;BME280;19964;42.060;24.700;2023-03-20T08:06:31;97822.25;;;13.88;51.42
6094;BME280;19964;42.060;24.700;2023-03-20T08:08:58;97809.38;;;13.82;51.53
6094;BME280;19964;42.060;24.700;2023-03-20T08:11:27;97819.66;;;15.08;49.93
6094;BME280;19964;42.060;24.700;2023-03-20T08:13:54;97818.91;;;14.43;50.49
6094;BME280;19964;42.060;24.700;2023-03-20T08:16:21;97817.72;;;15.47;49.86
6094;BME280;19964;42.060;24.700;2023-03-20T08:18:48;97814.19;;;15.89;47.71
6094;BME280;19964;42.060;24.700;2023-03-20T08:21:17;97816.44;;;15.23;48.44
6094;BME280;19964;42.060;24.700;2023-03-20T08:23:44;97818.44;;;15.64;50.67
6094;BME280;19964;42.060;24.700;2023-03-20T08:26:11;97818.13;;;16.34;48.08
6094;BME280;19964;42.060;24.700;2023-03-20T08:28:39;97805.03;;;15.55;48.93
6094;BME280;19964;42.060;24.700;2023-03-20T08:31:07;97826.78;;;16.39;47.10
6094;BME280;19964;42.060;24.700;2023-03-20T08:33:34;97828.88;;;16.42;48.06
6094;BME280;19964;42.060;24.700;2023-03-20T08:36:01;97819.94;;;16.75;46.89
6094;BME280;19964;42.060;24.700;2023-03-20T08:38:27;97832.06;;;15.71;48.11
6094;BME280;19964;42.060;24.700;2023-03-20T08:40:54;97826.22;;;15.10;49.55
6094;BME280;19964;42.060;24.700;2023-03-20T08:43:21;97825.50;;;15.68;47.89
6094;BME280;19964;42.060;24.700;2023-03-20T08:45:49;97822.28;;;16.25;47.90
6094;BME280;19964;42.060;24.700;2023-03-20T08:48:16;97821.00;;;16.32;46.67
6094;BME280;19964;42.060;24.700;2023-03-20T08:50:42;97803.22;;;16.34;47.82
6094;BME280;19964;42.060;24.700;2023-03-20T08:53:09;97820.78;;;16.90;48.17
6094;BME280;19964;42.060;24.700;2023-03-20T08:55:36;97791.69;;;16.82;48.24
6094;BME280;19964;42.060;24.700;2023-03-20T08:58:03;97807.13;;;16.83;46.54
6094;BME280;19964;42.060;24.700;2023-03-20T09:00:30;97810.38;;;16.49;47.88
6094;BME280;19964;42.060;24.700;2023-03-20T09:02:58;97805.34;;;16.94;46.99
6094;BME280;19964;42.060;24.700;2023-03-20T09:05:25;97798.84;;;17.12;47.95
6094;BME280;19964;42.060;24.700;2023-03-20T09:07:51;97796.06;;;17.58;46.96
6094;BME280;19964;42.060;24.700;2023-03-20T09:10:18;97794.38;;;17.02;46.12
6094;BME280;19964;42.060;24.700;2023-03-20T09:12:45;97798.59;;;17.28;45.61
6094;BME280;19964;42.060;24.700;2023-03-20T09:15:12;97720.13;;;15.89;46.86
6094;BME280;19964;42.060;24.700;2023-03-20T09:17:39;97788.34;;;16.45;47.53
6094;BME280;19964;42.060;24.700;2023-03-20T09:20:08;97787.06;;;17.24;47.49
6094;BME280;19964;42.060;24.700;2023-03-20T09:22:35;97796.50;;;17.25;45.41
6094;BME280;19964;42.060;24.700;2023-03-20T09:25:02;97779.22;;;17.29;46.04
6094;BME280;19964;42.060;24.700;2023-03-20T09:27:29;97771.91;;;17.46;47.63
6094;BME280;19964;42.060;24.700;2023-03-20T09:29:55;97782.69;;;17.55;45.09
6094;BME280;19964;42.060;24.700;2023-03-20T09:32:22;97780.06;;;17.80;44.42
6094;BME280;19964;42.060;24.700;2023-03-20T09:34:50;97776.59;;;17.14;45.56
6094;BME280;19964;42.060;24.700;2023-03-20T09:37:18;97772.69;;;17.22;46.87
6094;BME280;19964;42.060;24.700;2023-03-20T09:39:45;97771.66;;;17.38;47.69
6094;BME280;19964;42.060;24.700;2023-03-20T09:42:22;97770.03;;;17.12;46.37
6094;BME280;19964;42.060;24.700;2023-03-20T09:44:56;97771.00;;;16.80;47.22
6094;BME280;19964;42.060;24.700;2023-03-20T09:47:32;97754.53;;;16.90;46.18
6094;BME280;19964;42.060;24.700;2023-03-20T09:50:17;97769.28;;;17.36;45.69
6094;BME280;19964;42.060;24.700;2023-03-20T09:52:56;97765.63;;;17.57;46.47
6094;BME280;19964;42.060;24.700;2023-03-20T09:55:29;97754.88;;;17.79;45.96
6094;BME280;19964;42.060;24.700;2023-03-20T09:58:03;97749.13;;;17.72;44.95
6094;BME280;19964;42.060;24.700;2023-03-20T10:00:33;97751.22;;;17.90;45.04
6094;BME280;19964;42.060;24.700;2023-03-20T10:03:02;97750.97;;;17.61;46.54
6094;BME280;19964;42.060;24.700;2023-03-20T10:05:31;97754.38;;;17.47;46.18
6094;BME280;19964;42.060;24.700;2023-03-20T10:08:03;97673.94;;;17.52;46.10
6094;BME280;19964;42.060;24.700;2023-03-20T10:10:38;97706.16;;;17.78;47.34
6094;BME280;19964;42.060;24.700;2023-03-20T10:13:30;97736.94;;;18.26;46.28
6094;BME280;19964;42.060;24.700;2023-03-20T10:16:06;97735.50;;;17.45;46.52
6094;BME280;19964;42.060;24.700;2023-03-20T10:18:41;97726.81;;;18.00;45.94
6094;BME280;19964;42.060;24.700;2023-03-20T10:21:14;97731.44;;;18.33;45.16
6094;BME280;19964;42.060;24.700;2023-03-20T10:23:48;97744.81;;;18.31;45.02
6094;BME280;19964;42.060;24.700;2023-03-20T10:26:21;97733.59;;;18.11;46.33
6094;BME280;19964;42.060;24.700;2023-03-20T10:28:53;97717.16;;;17.45;45.74
6094;BME280;19964;42.060;24.700;2023-03-20T10:31:31;97692.50;;;16.85;47.17
6094;BME280;19964;42.060;24.700;2023-03-20T10:34:14;97697.22;;;17.09;47.35
6094;BME280;19964;42.060;24.700;2023-03-20T10:36:53;97712.22;;;17.48;46.84
6094;BME280;19964;42.060;24.700;2023-03-20T10:39:37;97708.75;;;17.48;46.85
6094;BME280;19964;42.060;24.700;2023-03-20T10:42:12;97703.78;;;17.71;47.51
6094;BME280;19964;42.060;24.700;2023-03-20T10:44:43;97701.72;;;17.68;47.39
6094;BME280;19964;42.060;24.700;2023-03-20T10:47:14;97695.41;;;17.69;46.66
6094;BME280;19964;42.060;24.700;2023-03-20T10:49:45;97688.34;;;17.45;47.56
6094;BME280;19964;42.060;24.700;2023-03-20T10:52:16;97673.94;;;17.32;47.93
6094;BME280;19964;42.060;24.700;2023-03-20T10:54:47;97676.31;;;17.59;47.46
6094;BME280;19964;42.060;24.700;2023-03-20T10:57:20;97676.69;;;18.06;46.73
6094;BME280;19964;42.060;24.700;2023-03-20T10:59:52;97669.25;;;17.49;47.04
6094;BME280;19964;42.060;24.700;2023-03-20T11:02:21;97653.25;;;17.56;48.61
6094;BME280;19964;42.060;24.700;2023-03-20T11:04:49;97652.16;;;17.82;46.52
6094;BME280;19964;42.060;24.700;2023-03-20T11:07:23;97630.03;;;18.03;45.94
6094;BME280;19964;42.060;24.700;2023-03-20T11:12:48;97652.06;;;18.07;45.99
6094;BME280;19964;42.060;24.700;2023-03-20T11:15:22;97627.66;;;18.12;45.92
6094;BME280;19964;42.060;24.700;2023-03-20T11:17:52;97642.91;;;17.95;46.23
6094;BME280;19964;42.060;24.700;2023-03-20T11:20:19;97546.91;;;17.55;46.71
6094;BME280;19964;42.060;24.700;2023-03-20T11:22:47;97643.63;;;18.10;46.81
6094;BME280;19964;42.060;24.700;2023-03-20T11:25:23;97616.22;;;17.88;47.16
6094;BME280;19964;42.060;24.700;2023-03-20T11:27:53;97611.72;;;17.93;46.08
6094;BME280;19964;42.060;24.700;2023-03-20T11:30:20;97631.31;;;18.11;46.17
6094;BME280;19964;42.060;24.700;2023-03-20T11:32:48;97602.91;;;18.33;46.32
6094;BME280;19964;42.060;24.700;2023-03-20T11:35:19;97607.72;;;18.59;46.03
6094;BME280;19964;42.060;24.700;2023-03-20T11:37:50;97606.91;;;18.64;45.88
6094;BME280;19964;42.060;24.700;2023-03-20T11:40:21;97596.03;;;18.47;46.21
6094;BME280;19964;42.060;24.700;2023-03-20T11:42:54;97602.63;;;18.34;46.00
6094;BME280;19964;42.060;24.700;2023-03-20T11:45:22;97600.19;;;18.48;46.42
6094;BME280;19964;42.060;24.700;2023-03-20T11:47:52;97598.16;;;18.35;46.13
6094;BME280;19964;42.060;24.700;2023-03-20T11:50:24;97590.09;;;18.21;46.17
6094;BME280;19964;42.060;24.700;2023-03-20T11:52:51;97592.50;;;18.18;45.70
6094;BME280;19964;42.060;24.700;2023-03-20T11:55:24;97600.47;;;18.46;45.96
6094;BME280;19964;42.060;24.700;2023-03-20T11:57:56;97581.59;;;18.39;44.75
6094;BME280;19964;42.060;24.700;2023-03-20T12:00:25;97582.75;;;18.67;45.95
6094;BME280;19964;42.060;24.700;2023-03-20T12:02:54;97576.25;;;18.59;45.03
6094;BME280;19964;42.060;24.700;2023-03-20T12:05:30;97567.28;;;18.65;45.61
6094;BME280;19964;42.060;24.700;2023-03-20T12:08:00;97566.81;;;18.58;44.54
6094;BME280;19964;42.060;24.700;2023-03-20T12:10:34;97564.81;;;19.08;44.55
6094;BME280;19964;42.060;24.700;2023-03-20T12:13:12;97560.38;;;18.75;44.58
6094;BME280;19964;42.060;24.700;2023-03-20T12:15:43;97568.03;;;19.00;44.42
6094;BME280;19964;42.060;24.700;2023-03-20T12:18:15;97553.84;;;19.01;44.30
6094;BME280;19964;42.060;24.700;2023-03-20T12:20:52;97555.22;;;19.22;43.19
6094;BME280;19964;42.060;24.700;2023-03-20T12:23:30;97556.72;;;19.28;43.13
6094;BME280;19964;42.060;24.700;2023-03-20T12:26:00;97555.06;;;19.13;42.95
6094;BME280;19964;42.060;24.700;2023-03-20T12:28:35;97558.56;;;19.32;43.92
6094;BME280;19964;42.060;24.700;2023-03-20T12:31:14;97554.25;;;19.41;42.42
6094;BME280;19964;42.060;24.700;2023-03-20T12:33:45;97554.06;;;18.76;42.94
6094;BME280;19964;42.060;24.700;2023-03-20T12:36:16;97529.00;;;18.59;43.08
6094;BME280;19964;42.060;24.700;2023-03-20T12:38:44;97550.44;;;19.00;41.98
6094;BME280;19964;42.060;24.700;2023-03-20T12:41:13;97458.34;;;18.34;42.33
6094;BME280;19964;42.060;24.700;2023-03-20T12:43:50;97518.16;;;18.71;43.59
6094;BME280;19964;42.060;24.700;2023-03-20T12:46:25;97544.53;;;18.85;43.52
6094;BME280;19964;42.060;24.700;2023-03-20T12:49:03;97539.50;;;18.88;42.74
6094;BME280;19964;42.060;24.700;2023-03-20T12:51:40;97531.16;;;19.10;42.83
6094;BME280;19964;42.060;24.700;2023-03-20T12:54:19;97524.06;;;19.39;41.81
6094;BME280;19964;42.060;24.700;2023-03-20T12:57:03;97530.09;;;19.39;42.82
6094;BME280;19964;42.060;24.700;2023-03-20T12:59:42;97530.19;;;19.29;42.40
6094;BME280;19964;42.060;24.700;2023-03-20T13:02:31;97538.78;;;19.11;42.22
6094;BME280;19964;42.060;24.700;2023-03-20T13:05:07;97520.59;;;19.43;42.24
6094;BME280;19964;42.060;24.700;2023-03-20T13:07:51;97523.63;;;19.56;40.17
6094;BME280;19964;42.060;24.700;2023-03-20T13:10:30;97437.50;;;19.24;39.72
6094;BME280;19964;42.060;24.700;2023-03-20T13:13:09;97515.28;;;19.91;40.00
6094;BME280;19964;42.060;24.700;2023-03-20T13:15:58;97516.66;;;19.65;40.89
6094;BME280;19964;42.060;24.700;2023-03-20T13:18:39;97514.91;;;19.31;40.76
6094;BME280;19964;42.060;24.700;2023-03-20T13:21:18;97501.47;;;19.80;40.56
6094;BME280;19964;42.060;24.700;2023-03-20T13:23:53;97505.31;;;19.88;38.40
6094;BME280;19964;42.060;24.700;2023-03-20T13:26:30;97504.91;;;20.18;38.78
6094;BME280;19964;42.060;24.700;2023-03-20T13:29:03;97477.38;;;19.92;38.36
6094;BME280;19964;42.060;24.700;2023-03-20T13:31:40;97497.94;;;20.08;36.83
6094;BME280;19964;42.060;24.700;2023-03-20T13:34:20;97476.38;;;19.69;36.28
6094;BME280;19964;42.060;24.700;2023-03-20T13:36:55;97494.72;;;19.74;36.27